Time;durP1;ratioP1;P1;durP2;ratioP2;P2;SDS_P1;SDS_P2;PMS_P1;PMS_P2;Temp;Humidity;BMP_temperature;BMP_pressure;BME280_temperature;BME280_humidity;BME280_pressure;Samples;Min_cycle;Max_cycle;Signal;HPM_P1;HPM_P2
2021/09/07 00:00:34;;;;;;;15.60;13.93;;;;;;;;;;5113757;28;20450;-60
2021/09/07 00:02:59;;;;;;;14.95;13.38;;;;;;;;;;5113895;28;20031;-59
2021/09/07 00:05:24;;;;;;;16.27;14.07;;;;;;;;;;5113728;28;20492;-59
2021/09/07 00:07:49;;;;;;;15.90;12.70;;;;;;;;;;5113903;28;20061;-59
2021/09/07 00:10:15;;;;;;;15.93;13.35;;;;;;;;;;5113655;28;20095;-59
2021/09/07 00:12:40;;;;;;;13.93;12.52;;;;;;;;;;5113521;28;20161;-59
2021/09/07 00:15:07;;;;;;;14.43;13.02;;;;;;;;;;5113566;28;20020;-60
2021/09/07 00:17:33;;;;;;;14.68;12.57;;;;;;;;;;5112646;28;20019;-58
2021/09/07 00:19:58;;;;;;;15.13;13.35;;;;;;;;;;5113247;28;20030;-58
2021/09/07 00:22:23;;;;;;;14.00;12.57;;;;;;;;;;5113918;28;20386;-58
2021/09/07 00:24:48;;;;;;;14.65;12.88;;;;;;;;;;5113669;28;20386;-59
2021/09/07 00:27:14;;;;;;;13.30;11.75;;;;;;;;;;5112779;28;20064;-59
2021/09/07 00:29:39;;;;;;;12.63;11.35;;;;;;;;;;5113085;28;20093;-59
2021/09/07 00:32:04;;;;;;;13.60;11.68;;;;;;;;;;5113684;28;20375;-59
2021/09/07 00:34:30;;;;;;;13.68;11.57;;;;;;;;;;5112543;28;20015;-59
2021/09/07 00:36:56;;;;;;;14.18;12.20;;;;;;;;;;5113563;28;20485;-59
2021/09/07 00:39:21;;;;;;;16.58;12.05;;;;;;;;;;5113242;28;20102;-59
2021/09/07 00:41:46;;;;;;;14.35;12.20;;;;;;;;;;5098067;28;20027;-59
2021/09/07 00:44:11;;;;;;;14.50;12.65;;;;;;;;;;5095565;28;20024;-59
2021/09/07 00:46:36;;;;;;;13.75;12.45;;;;;;;;;;5113378;28;20051;-58
2021/09/07 00:49:02;;;;;;;13.82;12.43;;;;;;;;;;5112861;28;20027;-58
2021/09/07 00:51:28;;;;;;;15.27;12.88;;;;;;;;;;5106833;28;20030;-59
2021/09/07 00:53:53;;;;;;;15.60;13.93;;;;;;;;;;5113487;28;20012;-59
2021/09/07 00:56:18;;;;;;;15.05;13.52;;;;;;;;;;5112154;28;20016;-59
2021/09/07 00:58:44;;;;;;;14.07;12.55;;;;;;;;;;5112751;28;20018;-60
2021/09/07 01:01:09;;;;;;;15.20;13.43;;;;;;;;;;5112775;28;20123;-59
2021/09/07 01:03:35;;;;;;;16.63;14.70;;;;;;;;;;5113262;28;20031;-59
2021/09/07 01:06:00;;;;;;;15.85;14.10;;;;;;;;;;5111865;28;20100;-59
2021/09/07 01:08:25;;;;;;;17.20;13.43;;;;;;;;;;5112596;28;20035;-58
2021/09/07 01:10:51;;;;;;;14.43;12.77;;;;;;;;;;5112444;28;20122;-58
2021/09/07 01:13:16;;;;;;;16.25;12.65;;;;;;;;;;5112430;28;20012;-58
2021/09/07 01:15:41;;;;;;;14.55;13.07;;;;;;;;;;5112684;28;20411;-58
2021/09/07 01:18:06;;;;;;;14.68;12.88;;;;;;;;;;5112403;28;20480;-59
2021/09/07 01:20:31;;;;;;;14.50;12.85;;;;;;;;;;5111932;28;20504;-58
2021/09/07 01:22:57;;;;;;;14.63;13.23;;;;;;;;;;5111804;28;20336;-60
2021/09/07 01:25:22;;;;;;;17.48;15.68;;;;;;;;;;5102503;28;20026;-58
2021/09/07 01:27:47;;;;;;;15.50;13.75;;;;;;;;;;5095678;28;20077;-59
2021/09/07 01:30:14;;;;;;;18.77;14.57;;;;;;;;;;5111876;28;20355;-58
2021/09/07 01:32:40;;;;;;;16.92;14.63;;;;;;;;;;5112577;28;20461;-58
2021/09/07 01:35:05;;;;;;;17.67;14.55;;;;;;;;;;5111098;28;20064;-59
2021/09/07 01:37:30;;;;;;;18.63;15.40;;;;;;;;;;5112329;28;20012;-59
2021/09/07 01:39:55;;;;;;;17.40;14.50;;;;;;;;;;5112325;28;20039;-58
2021/09/07 01:42:24;;;;;;;16.45;14.35;;;;;;;;;;5112209;28;20024;-58
2021/09/07 01:44:49;;;;;;;16.30;14.68;;;;;;;;;;5111875;28;20019;-59
2021/09/07 01:47:14;;;;;;;15.38;13.52;;;;;;;;;;5112039;28;20103;-59
2021/09/07 01:49:40;;;;;;;16.38;14.32;;;;;;;;;;5111770;28;20043;-58
2021/09/07 01:52:12;;;;;;;16.60;13.43;;;;;;;;;;5111500;28;20022;-59
2021/09/07 01:54:44;;;;;;;15.73;14.10;;;;;;;;;;5111965;28;20023;-59
2021/09/07 01:57:10;;;;;;;17.05;14.23;;;;;;;;;;5111957;28;20077;-58
2021/09/07 01:59:36;;;;;;;15.95;14.32;;;;;;;;;;5111710;28;20023;-59
2021/09/07 02:02:02;;;;;;;17.02;14.20;;;;;;;;;;5112450;28;20039;-59
2021/09/07 02:04:27;;;;;;;17.08;14.43;;;;;;;;;;5111223;28;20076;-58
2021/09/07 02:06:52;;;;;;;15.65;13.77;;;;;;;;;;5112613;28;20455;-59
2021/09/07 02:09:19;;;;;;;14.95;13.30;;;;;;;;;;5111780;28;20043;-59
2021/09/07 02:11:44;;;;;;;15.48;13.73;;;;;;;;;;5111966;28;20049;-59
2021/09/07 02:14:09;;;;;;;16.23;13.55;;;;;;;;;;5111207;28;20107;-59
2021/09/07 02:16:34;;;;;;;14.63;13.00;;;;;;;;;;5111707;28;20083;-59
2021/09/07 02:19:00;;;;;;;14.63;13.13;;;;;;;;;;5111796;28;20016;-59
2021/09/07 02:21:25;;;;;;;14.32;12.82;;;;;;;;;;5111023;28;20195;-59
2021/09/07 02:23:50;;;;;;;13.98;12.32;;;;;;;;;;5111105;28;20019;-59
2021/09/07 02:26:15;;;;;;;20.77;13.90;;;;;;;;;;5111917;28;20057;-58
2021/09/07 02:28:41;;;;;;;17.92;14.30;;;;;;;;;;5111162;28;20043;-59
2021/09/07 02:31:07;;;;;;;15.20;13.63;;;;;;;;;;5111671;28;20138;-59
2021/09/07 02:33:32;;;;;;;16.30;14.55;;;;;;;;;;5112188;28;20400;-59
2021/09/07 02:35:57;;;;;;;16.63;14.93;;;;;;;;;;5110988;28;20024;-59
2021/09/07 02:38:23;;;;;;;20.83;15.43;;;;;;;;;;5113243;28;20064;-59
2021/09/07 02:40:48;;;;;;;16.20;14.00;;;;;;;;;;5099546;28;20020;-59
2021/09/07 02:43:13;;;;;;;17.98;15.13;;;;;;;;;;5099693;28;20015;-59
2021/09/07 02:45:38;;;;;;;16.38;14.52;;;;;;;;;;5115445;28;20049;-59
2021/09/07 02:48:04;;;;;;;18.52;16.58;;;;;;;;;;5114952;27;20016;-59
2021/09/07 02:50:29;;;;;;;19.13;16.00;;;;;;;;;;5114465;28;20020;-59
2021/09/07 02:52:54;;;;;;;21.05;17.33;;;;;;;;;;5114887;28;20028;-57
2021/09/07 02:55:19;;;;;;;18.50;16.48;;;;;;;;;;5114706;28;20490;-58
2021/09/07 02:57:44;;;;;;;19.35;16.08;;;;;;;;;;5114611;28;20098;-57
2021/09/07 03:00:10;;;;;;;19.48;17.08;;;;;;;;;;5114913;28;20023;-58
2021/09/07 03:02:35;;;;;;;19.35;17.02;;;;;;;;;;5115279;28;20114;-58
2021/09/07 03:05:00;;;;;;;20.40;17.70;;;;;;;;;;5114340;28;20078;-59
2021/09/07 03:07:25;;;;;;;19.83;17.63;;;;;;;;;;5113311;28;20057;-59
2021/09/07 03:09:51;;;;;;;21.13;17.45;;;;;;;;;;5110506;28;20031;-59
2021/09/07 03:12:16;;;;;;;21.30;17.30;;;;;;;;;;5114396;28;20474;-59
2021/09/07 03:14:41;;;;;;;23.42;18.30;;;;;;;;;;5113931;28;20027;-59
2021/09/07 03:17:06;;;;;;;20.38;18.17;;;;;;;;;;5114863;28;20174;-59
2021/09/07 03:19:31;;;;;;;20.27;18.08;;;;;;;;;;5114022;28;20015;-58
2021/09/07 03:21:57;;;;;;;21.10;18.95;;;;;;;;;;5114018;28;20027;-58
2021/09/07 03:24:22;;;;;;;19.70;17.60;;;;;;;;;;5113899;28;20087;-58
2021/09/07 03:26:47;;;;;;;21.83;17.95;;;;;;;;;;5113201;28;20067;-60
2021/09/07 03:29:12;;;;;;;20.35;17.85;;;;;;;;;;5114526;28;20527;-58
2021/09/07 03:31:38;;;;;;;21.17;18.23;;;;;;;;;;5114485;28;20436;-57
2021/09/07 03:34:03;;;;;;;21.08;18.77;;;;;;;;;;5114723;28;20016;-59
2021/09/07 03:36:28;;;;;;;20.17;17.95;;;;;;;;;;5113744;28;20035;-59
2021/09/07 03:38:53;;;;;;;20.98;18.27;;;;;;;;;;5114385;28;20527;-59
2021/09/07 03:41:19;;;;;;;20.25;17.95;;;;;;;;;;5114197;28;20118;-59
2021/09/07 03:43:44;;;;;;;24.40;19.27;;;;;;;;;;5114760;28;20115;-58
2021/09/07 03:46:09;;;;;;;20.98;18.02;;;;;;;;;;5114088;28;20217;-58
2021/09/07 03:48:34;;;;;;;20.45;17.95;;;;;;;;;;5113843;28;20479;-59
2021/09/07 03:50:59;;;;;;;21.35;18.10;;;;;;;;;;5113716;28;20498;-59
2021/09/07 03:53:27;;;;;;;24.08;19.38;;;;;;;;;;5114048;28;20027;-60
2021/09/07 03:55:52;;;;;;;21.67;19.05;;;;;;;;;;5114911;28;20358;-59
2021/09/07 03:58:17;;;;;;;20.05;17.92;;;;;;;;;;5114024;28;20024;-58
2021/09/07 04:00:43;;;;;;;23.52;20.02;;;;;;;;;;5114138;28;20031;-59
2021/09/07 04:03:15;;;;;;;22.75;19.23;;;;;;;;;;5099978;28;20043;-59
2021/09/07 04:05:40;;;;;;;23.73;20.08;;;;;;;;;;5113143;28;20397;-59
2021/09/07 04:08:06;;;;;;;26.17;21.15;;;;;;;;;;5113930;28;20023;-59
2021/09/07 04:10:31;;;;;;;24.98;20.75;;;;;;;;;;5095138;28;20385;-59
2021/09/07 04:12:56;;;;;;;23.73;20.45;;;;;;;;;;5114065;28;20462;-58
2021/09/07 04:15:21;;;;;;;24.50;21.27;;;;;;;;;;5113259;28;20024;-59
2021/09/07 04:17:46;;;;;;;23.77;20.30;;;;;;;;;;5113564;28;20053;-58
2021/09/07 04:20:12;;;;;;;23.30;20.80;;;;;;;;;;5113114;28;20106;-59
2021/09/07 04:22:37;;;;;;;24.50;20.67;;;;;;;;;;5113427;28;20024;-59
2021/09/07 04:25:03;;;;;;;23.23;20.15;;;;;;;;;;5113590;28;20041;-58
2021/09/07 04:27:28;;;;;;;23.63;20.27;;;;;;;;;;5113489;28;20050;-58
2021/09/07 04:29:53;;;;;;;27.13;22.63;;;;;;;;;;5112911;28;20122;-58
2021/09/07 04:32:18;;;;;;;22.52;19.70;;;;;;;;;;5113375;28;20483;-59
2021/09/07 04:34:43;;;;;;;23.05;19.63;;;;;;;;;;5112804;28;20098;-59
2021/09/07 04:37:09;;;;;;;22.45;20.05;;;;;;;;;;5113111;28;20471;-59
2021/09/07 04:39:34;;;;;;;25.88;21.00;;;;;;;;;;5113098;28;20470;-59
2021/09/07 04:41:59;;;;;;;24.90;20.85;;;;;;;;;;5113240;28;20053;-59
2021/09/07 04:44:24;;;;;;;25.08;20.02;;;;;;;;;;5112768;28;20020;-59
2021/09/07 04:46:49;;;;;;;24.77;20.77;;;;;;;;;;5113290;28;20032;-59
2021/09/07 04:49:15;;;;;;;26.83;20.85;;;;;;;;;;5112455;28;20038;-59
2021/09/07 04:51:40;;;;;;;23.33;20.40;;;;;;;;;;5112289;28;20023;-59
2021/09/07 04:54:05;;;;;;;24.27;19.83;;;;;;;;;;5112474;28;20031;-59
2021/09/07 04:56:31;;;;;;;24.08;19.80;;;;;;;;;;5112233;28;20046;-58
2021/09/07 04:58:56;;;;;;;22.65;19.52;;;;;;;;;;5112439;28;20484;-59
2021/09/07 05:01:21;;;;;;;21.33;18.52;;;;;;;;;;5111711;28;20048;-59
2021/09/07 05:03:46;;;;;;;22.88;20.05;;;;;;;;;;5112760;28;20108;-59
2021/09/07 05:06:11;;;;;;;22.42;18.80;;;;;;;;;;5107156;28;20027;-59
2021/09/07 05:08:37;;;;;;;21.52;18.25;;;;;;;;;;5111548;28;20331;-59
2021/09/07 05:11:02;;;;;;;24.90;19.73;;;;;;;;;;5111869;28;20027;-59
2021/09/07 05:13:27;;;;;;;23.58;19.55;;;;;;;;;;5112853;28;20058;-59
2021/09/07 05:15:52;;;;;;;22.50;17.98;;;;;;;;;;5108772;28;20055;-59
2021/09/07 05:18:17;;;;;;;22.33;18.25;;;;;;;;;;5105290;28;20067;-59
2021/09/07 05:20:43;;;;;;;23.30;18.05;;;;;;;;;;5107773;28;20072;-60
2021/09/07 05:23:08;;;;;;;19.63;16.38;;;;;;;;;;5111868;28;20027;-58
2021/09/07 05:25:33;;;;;;;24.13;18.65;;;;;;;;;;5112078;28;20426;-59
2021/09/07 05:27:58;;;;;;;20.52;17.13;;;;;;;;;;5111403;28;20485;-58
2021/09/07 05:30:24;;;;;;;21.77;18.10;;;;;;;;;;5111699;28;20028;-60
2021/09/07 05:32:49;;;;;;;22.35;18.85;;;;;;;;;;5111926;28;20031;-60
2021/09/07 05:35:14;;;;;;;21.80;18.77;;;;;;;;;;5110928;28;20048;-59
2021/09/07 05:37:41;;;;;;;22.15;18.80;;;;;;;;;;5111061;28;20529;-60
2021/09/07 05:40:10;;;;;;;21.58;18.05;;;;;;;;;;5110326;28;20070;-58
2021/09/07 05:42:35;;;;;;;21.95;18.10;;;;;;;;;;5110384;28;20466;-60
2021/09/07 05:45:01;;;;;;;22.65;17.55;;;;;;;;;;5102280;28;20049;-59
2021/09/07 05:47:26;;;;;;;21.50;18.35;;;;;;;;;;5111641;28;20020;-59
2021/09/07 05:49:52;;;;;;;22.70;18.83;;;;;;;;;;5109650;28;20059;-58
2021/09/07 05:52:17;;;;;;;21.45;18.45;;;;;;;;;;5111628;28;20282;-59
2021/09/07 05:54:42;;;;;;;21.48;18.58;;;;;;;;;;5113129;27;20019;-59
2021/09/07 05:57:07;;;;;;;20.38;18.25;;;;;;;;;;5119912;27;20030;-60
2021/09/07 05:59:33;;;;;;;21.95;19.05;;;;;;;;;;5111369;28;20012;-58
2021/09/07 06:01:58;;;;;;;23.55;19.27;;;;;;;;;;5110632;28;20107;-58
2021/09/07 06:04:23;;;;;;;24.15;18.15;;;;;;;;;;5111418;28;20020;-60
2021/09/07 06:06:48;;;;;;;19.92;17.15;;;;;;;;;;5112005;27;20386;-58
2021/09/07 06:09:14;;;;;;;22.13;18.23;;;;;;;;;;5119931;27;20377;-59
2021/09/07 06:11:39;;;;;;;26.92;22.08;;;;;;;;;;5103930;28;20059;-59
2021/09/07 06:14:05;;;;;;;25.00;21.55;;;;;;;;;;5110788;28;20019;-59
2021/09/07 06:16:30;;;;;;;24.67;19.98;;;;;;;;;;5110760;28;20086;-59
2021/09/07 06:18:55;;;;;;;23.20;20.17;;;;;;;;;;5111154;28;20543;-58
2021/09/07 06:21:20;;;;;;;26.00;20.10;;;;;;;;;;5110298;28;20031;-58
2021/09/07 06:23:45;;;;;;;28.50;20.98;;;;;;;;;;5111727;28;20020;-59
2021/09/07 06:26:10;;;;;;;25.35;21.33;;;;;;;;;;5111543;28;20470;-59
2021/09/07 06:28:37;;;;;;;27.55;22.20;;;;;;;;;;5106348;28;20044;-59
2021/09/07 06:31:03;;;;;;;27.58;22.10;;;;;;;;;;5104477;28;20031;-60
2021/09/07 06:33:28;;;;;;;28.88;20.98;;;;;;;;;;5110498;28;20366;-59
2021/09/07 06:35:53;;;;;;;24.65;20.30;;;;;;;;;;5109482;28;20028;-59
2021/09/07 06:38:18;;;;;;;24.63;20.25;;;;;;;;;;5111155;28;20069;-60
2021/09/07 06:40:43;;;;;;;22.27;19.90;;;;;;;;;;5092840;28;20050;-59
2021/09/07 06:43:09;;;;;;;25.27;20.65;;;;;;;;;;5111309;28;20031;-58
2021/09/07 06:45:34;;;;;;;25.65;20.27;;;;;;;;;;5111285;28;20024;-59
2021/09/07 06:47:59;;;;;;;24.02;19.75;;;;;;;;;;5111350;28;20128;-58
2021/09/07 06:50:25;;;;;;;25.63;21.15;;;;;;;;;;5110820;28;20028;-59
2021/09/07 06:52:50;;;;;;;24.58;20.83;;;;;;;;;;5111376;28;20035;-58
2021/09/07 06:55:15;;;;;;;21.92;19.10;;;;;;;;;;5111299;28;20107;-60
2021/09/07 06:57:40;;;;;;;28.90;20.05;;;;;;;;;;5111007;28;20458;-59
2021/09/07 07:00:06;;;;;;;22.77;18.25;;;;;;;;;;5110303;28;20015;-58
2021/09/07 07:02:31;;;;;;;22.23;18.20;;;;;;;;;;5110977;28;20432;-59
2021/09/07 07:04:57;;;;;;;25.35;18.40;;;;;;;;;;5110696;28;20162;-59
2021/09/07 07:07:22;;;;;;;21.52;17.13;;;;;;;;;;5110902;28;20471;-60
2021/09/07 07:09:48;;;;;;;21.65;17.02;;;;;;;;;;5110070;28;20405;-58
2021/09/07 07:12:13;;;;;;;20.38;17.02;;;;;;;;;;5109805;28;20027;-59
2021/09/07 07:14:38;;;;;;;19.63;17.48;;;;;;;;;;5107901;28;20015;-58
2021/09/07 07:17:03;;;;;;;21.52;17.58;;;;;;;;;;5111101;28;20111;-59
2021/09/07 07:19:29;;;;;;;19.92;17.55;;;;;;;;;;5110565;28;20022;-59
2021/09/07 07:21:54;;;;;;;18.90;16.88;;;;;;;;;;5107792;28;20031;-59
2021/09/07 07:24:19;;;;;;;19.43;16.07;;;;;;;;;;5111511;28;20031;-59
2021/09/07 07:26:44;;;;;;;18.70;15.60;;;;;;;;;;5114477;28;20322;-59
2021/09/07 07:29:11;;;;;;;20.55;17.95;;;;;;;;;;5114121;28;20052;-59
2021/09/07 07:31:37;;;;;;;17.33;15.35;;;;;;;;;;5114502;28;20072;-59
2021/09/07 07:34:02;;;;;;;18.98;15.80;;;;;;;;;;5107674;28;20386;-59
2021/09/07 07:36:27;;;;;;;19.00;15.00;;;;;;;;;;5110786;28;20454;-59
2021/09/07 07:38:52;;;;;;;18.13;15.40;;;;;;;;;;5113686;28;20055;-59
2021/09/07 07:41:18;;;;;;;18.75;15.50;;;;;;;;;;5105686;28;20385;-59
2021/09/07 07:43:46;;;;;;;18.45;14.35;;;;;;;;;;5112735;28;20478;-59
2021/09/07 07:46:13;;;;;;;17.52;14.55;;;;;;;;;;5102090;28;20020;-60
2021/09/07 07:48:41;;;;;;;17.35;15.38;;;;;;;;;;5113738;28;20051;-57
2021/09/07 07:51:07;;;;;;;18.92;15.65;;;;;;;;;;5113817;28;20024;-58
2021/09/07 07:53:33;;;;;;;17.08;14.55;;;;;;;;;;5112693;28;20011;-58
2021/09/07 07:55:58;;;;;;;17.40;15.32;;;;;;;;;;5114049;28;20553;-59
2021/09/07 07:58:23;;;;;;;19.30;14.82;;;;;;;;;;5099250;28;20058;-59
2021/09/07 08:00:48;;;;;;;15.53;13.83;;;;;;;;;;5114182;28;20072;-60
2021/09/07 08:03:14;;;;;;;16.88;13.80;;;;;;;;;;5113936;28;20288;-61
2021/09/07 08:05:39;;;;;;;19.25;14.77;;;;;;;;;;5112835;28;20024;-59
2021/09/07 08:08:05;;;;;;;16.02;13.45;;;;;;;;;;5113319;28;20378;-58
2021/09/07 08:10:30;;;;;;;17.48;14.57;;;;;;;;;;5113376;28;20028;-59
2021/09/07 08:12:55;;;;;;;14.77;12.25;;;;;;;;;;5113119;28;20023;-58
2021/09/07 08:15:21;;;;;;;16.53;12.37;;;;;;;;;;5113921;28;20530;-60
2021/09/07 08:17:48;;;;;;;16.00;11.57;;;;;;;;;;5111556;28;20269;-60
2021/09/07 08:20:14;;;;;;;13.32;11.98;;;;;;;;;;5098039;27;20012;-59
2021/09/07 08:22:39;;;;;;;15.52;12.75;;;;;;;;;;5119226;27;20350;-59
2021/09/07 08:25:04;;;;;;;14.50;11.98;;;;;;;;;;5112795;28;20027;-59
2021/09/07 08:27:29;;;;;;;17.13;13.80;;;;;;;;;;5113184;28;20020;-59
2021/09/07 08:29:55;;;;;;;12.38;10.63;;;;;;;;;;5113142;28;20451;-59
2021/09/07 08:32:20;;;;;;;13.47;11.90;;;;;;;;;;5112171;28;20031;-60
2021/09/07 08:34:45;;;;;;;15.87;11.07;;;;;;;;;;5112794;28;20323;-59
2021/09/07 08:37:10;;;;;;;16.38;11.07;;;;;;;;;;5113093;28;20642;-60
2021/09/07 08:39:35;;;;;;;13.57;10.73;;;;;;;;;;5112824;28;20011;-58
2021/09/07 08:42:01;;;;;;;13.77;11.38;;;;;;;;;;5112777;28;20270;-58
2021/09/07 08:44:27;;;;;;;12.05;10.70;;;;;;;;;;5113295;28;20110;-59
2021/09/07 08:46:52;;;;;;;12.80;10.27;;;;;;;;;;5112876;28;20028;-59
2021/09/07 08:49:18;;;;;;;12.90;10.60;;;;;;;;;;5112653;28;20046;-57
2021/09/07 08:51:44;;;;;;;12.93;11.13;;;;;;;;;;5112382;28;20311;-60
2021/09/07 08:54:09;;;;;;;13.48;9.77;;;;;;;;;;5112860;28;20486;-57
2021/09/07 08:56:34;;;;;;;12.88;10.57;;;;;;;;;;5112322;28;20060;-59
2021/09/07 08:59:00;;;;;;;12.52;10.73;;;;;;;;;;5112699;28;20095;-59
2021/09/07 09:01:26;;;;;;;12.60;11.07;;;;;;;;;;5111919;28;20041;-59
2021/09/07 09:03:51;;;;;;;12.02;10.73;;;;;;;;;;5111974;28;20024;-59
2021/09/07 09:06:25;;;;;;;14.20;10.40;;;;;;;;;;5107784;28;20027;-61
2021/09/07 09:09:01;;;;;;;12.15;10.73;;;;;;;;;;5092208;28;20192;-60
2021/09/07 09:11:26;;;;;;;13.23;10.82;;;;;;;;;;5111934;28;20039;-60
2021/09/07 09:13:51;;;;;;;12.33;10.93;;;;;;;;;;5112437;28;20398;-60
2021/09/07 09:16:17;;;;;;;13.40;11.15;;;;;;;;;;5112119;28;20265;-60
2021/09/07 09:18:44;;;;;;;12.25;10.57;;;;;;;;;;5112317;28;20016;-59
2021/09/07 09:21:27;;;;;;;14.20;11.70;;;;;;;;;;5110894;28;20080;-60
2021/09/07 09:24:11;;;;;;;12.10;10.60;;;;;;;;;;5101785;28;20527;-60
2021/09/07 09:26:50;;;;;;;13.02;10.95;;;;;;;;;;5111741;28;20020;-59
2021/09/07 09:29:18;;;;;;;14.63;12.25;;;;;;;;;;5111726;28;20043;-60
2021/09/07 09:32:10;;;;;;;12.20;10.65;;;;;;;;;;5112151;28;20119;-60
2021/09/07 09:34:39;;;;;;;14.38;10.25;;;;;;;;;;5107187;28;20484;-60
2021/09/07 09:37:08;;;;;;;13.27;10.57;;;;;;;;;;5110664;28;20474;-60
2021/09/07 09:39:41;;;;;;;10.68;9.68;;;;;;;;;;5112115;28;20068;-60
2021/09/07 09:42:06;;;;;;;11.57;10.00;;;;;;;;;;5107104;28;20016;-60
2021/09/07 09:44:32;;;;;;;12.75;9.40;;;;;;;;;;5111575;28;20049;-60
2021/09/07 09:46:57;;;;;;;10.57;9.35;;;;;;;;;;5111248;28;20071;-60
2021/09/07 09:49:25;;;;;;;11.75;9.02;;;;;;;;;;5111804;28;20027;-60
2021/09/07 09:51:51;;;;;;;11.63;9.82;;;;;;;;;;5080592;28;20090;-61
2021/09/07 09:54:17;;;;;;;11.45;9.50;;;;;;;;;;5109270;28;20022;-61
2021/09/07 09:56:42;;;;;;;12.15;9.60;;;;;;;;;;5093603;28;20094;-60
2021/09/07 09:59:07;;;;;;;10.93;9.82;;;;;;;;;;5107901;28;20050;-60
2021/09/07 10:01:33;;;;;;;10.77;9.35;;;;;;;;;;5102841;28;20031;-60
2021/09/07 10:04:00;;;;;;;12.45;9.95;;;;;;;;;;5110058;28;20107;-60
2021/09/07 10:06:26;;;;;;;10.75;9.65;;;;;;;;;;5109504;28;20470;-60
2021/09/07 10:08:51;;;;;;;11.57;9.50;;;;;;;;;;5110212;28;20054;-60
2021/09/07 10:11:20;;;;;;;10.60;9.50;;;;;;;;;;5110282;28;20095;-60
2021/09/07 10:13:47;;;;;;;10.80;8.38;;;;;;;;;;5110976;28;20472;-60
2021/09/07 10:16:25;;;;;;;9.88;8.80;;;;;;;;;;5108076;28;20099;-60
2021/09/07 10:26:42;;;;;;;8.90;7.80;;;;;;;;;;5111143;28;20099;-60
2021/09/07 10:29:12;;;;;;;8.80;7.90;;;;;;;;;;5110513;28;20719;-59
2021/09/07 10:31:48;;;;;;;8.60;7.70;;;;;;;;;;5111697;28;20036;-59
2021/09/07 10:34:13;;;;;;;8.10;7.10;;;;;;;;;;5111252;28;20012;-60
2021/09/07 10:36:57;;;;;;;9.80;7.25;;;;;;;;;;5110446;28;20025;-60
2021/09/07 10:39:26;;;;;;;8.20;6.65;;;;;;;;;;5106758;28;20015;-61
2021/09/07 10:41:52;;;;;;;7.95;5.68;;;;;;;;;;5111331;28;20024;-59
2021/09/07 10:44:24;;;;;;;8.50;6.68;;;;;;;;;;5111036;28;20027;-60
2021/09/07 10:46:58;;;;;;;6.97;5.85;;;;;;;;;;5110391;28;20034;-60
2021/09/07 10:49:24;;;;;;;7.47;5.90;;;;;;;;;;5111028;28;20493;-59
2021/09/07 10:52:04;;;;;;;7.43;6.45;;;;;;;;;;5110558;28;20027;-60
2021/09/07 10:54:30;;;;;;;6.60;5.90;;;;;;;;;;5111087;28;20020;-60
2021/09/07 10:56:57;;;;;;;6.10;5.28;;;;;;;;;;5110741;28;20492;-60
2021/09/07 10:59:41;;;;;;;6.72;5.78;;;;;;;;;;5120587;27;20019;-59
2021/09/07 11:02:25;;;;;;;6.53;5.78;;;;;;;;;;5114772;28;20084;-60
2021/09/07 11:04:50;;;;;;;6.53;5.85;;;;;;;;;;5114603;28;20031;-60
2021/09/07 11:07:42;;;;;;;6.90;6.25;;;;;;;;;;5114796;28;20552;-59
2021/09/07 11:10:27;;;;;;;7.07;6.28;;;;;;;;;;5111465;28;20273;-60
2021/09/07 11:12:54;;;;;;;6.63;5.78;;;;;;;;;;5113378;28;20070;-60
2021/09/07 11:15:20;;;;;;;6.13;4.80;;;;;;;;;;5113578;28;20023;-59
2021/09/07 11:17:53;;;;;;;5.90;5.30;;;;;;;;;;5114542;28;20019;-60
2021/09/07 11:20:19;;;;;;;6.38;5.22;;;;;;;;;;5114280;28;20493;-59
2021/09/07 11:22:44;;;;;;;5.93;5.32;;;;;;;;;;5114315;28;20520;-60
2021/09/07 11:25:11;;;;;;;7.70;6.13;;;;;;;;;;5114292;28;20046;-61
2021/09/07 11:27:53;;;;;;;7.32;6.63;;;;;;;;;;5114488;28;20414;-60
2021/09/07 11:30:19;;;;;;;6.53;5.63;;;;;;;;;;5108839;28;20253;-60
2021/09/07 11:32:44;;;;;;;8.15;7.07;;;;;;;;;;5114064;28;20118;-59
2021/09/07 11:35:09;;;;;;;7.03;6.37;;;;;;;;;;5113309;28;20047;-59
2021/09/07 11:37:34;;;;;;;7.95;6.82;;;;;;;;;;5114039;28;20340;-61
2021/09/07 11:40:10;;;;;;;7.93;7.13;;;;;;;;;;5113446;28;20024;-59
2021/09/07 11:42:46;;;;;;;7.85;6.90;;;;;;;;;;5097322;28;20023;-59
2021/09/07 11:45:21;;;;;;;7.95;7.00;;;;;;;;;;5114534;28;20474;-60
2021/09/07 11:47:47;;;;;;;8.05;7.10;;;;;;;;;;5113886;28;20393;-59
2021/09/07 11:50:32;;;;;;;8.77;7.28;;;;;;;;;;5113099;28;20115;-59
2021/09/07 11:52:58;;;;;;;7.90;6.80;;;;;;;;;;5113237;28;20051;-59
2021/09/07 11:55:36;;;;;;;8.77;7.30;;;;;;;;;;5113855;28;20343;-59
2021/09/07 11:58:01;;;;;;;8.63;7.68;;;;;;;;;;5113324;28;20416;-60
2021/09/07 12:00:26;;;;;;;9.07;8.18;;;;;;;;;;5113644;28;20023;-60
2021/09/07 12:03:11;;;;;;;7.57;6.87;;;;;;;;;;5113937;28;20031;-60
2021/09/07 12:05:51;;;;;;;8.20;7.05;;;;;;;;;;5108356;28;20265;-60
2021/09/07 12:08:16;;;;;;;7.38;6.55;;;;;;;;;;5112379;28;20107;-59
2021/09/07 12:10:54;;;;;;;7.53;6.83;;;;;;;;;;5112106;28;20434;-59
2021/09/07 12:13:21;;;;;;;7.57;6.85;;;;;;;;;;5113047;28;20605;-60
2021/09/07 12:15:46;;;;;;;7.85;7.15;;;;;;;;;;5107038;28;20020;-60
2021/09/07 12:18:31;;;;;;;7.30;6.70;;;;;;;;;;5110557;28;20034;-60
2021/09/07 12:21:15;;;;;;;7.57;6.88;;;;;;;;;;5092180;28;20621;-59
2021/09/07 12:23:42;;;;;;;7.05;6.45;;;;;;;;;;5111408;28;20016;-59
2021/09/07 12:26:07;;;;;;;7.22;6.60;;;;;;;;;;5112914;28;20038;-59
2021/09/07 12:28:33;;;;;;;7.55;6.95;;;;;;;;;;5112482;28;20401;-60
2021/09/07 12:31:11;;;;;;;8.10;7.13;;;;;;;;;;5113028;28;20224;-59
2021/09/07 12:33:44;;;;;;;7.13;6.60;;;;;;;;;;5110415;28;20051;-60
2021/09/07 12:36:10;;;;;;;7.97;7.30;;;;;;;;;;5111917;28;20042;-60
2021/09/07 12:38:36;;;;;;;6.90;6.28;;;;;;;;;;5112245;28;20070;-60
2021/09/07 12:41:06;;;;;;;7.60;6.63;;;;;;;;;;5095816;28;20445;-59
2021/09/07 12:43:33;;;;;;;6.15;5.57;;;;;;;;;;5108386;28;20412;-60
2021/09/07 12:46:00;;;;;;;7.50;6.80;;;;;;;;;;5112643;28;20026;-59
2021/09/07 12:48:25;;;;;;;6.93;6.20;;;;;;;;;;5112679;28;20095;-60
2021/09/07 12:50:51;;;;;;;6.63;6.03;;;;;;;;;;5104147;28;20115;-61
2021/09/07 12:53:21;;;;;;;6.95;6.38;;;;;;;;;;5111281;28;20022;-60
2021/09/07 12:55:46;;;;;;;6.72;6.07;;;;;;;;;;5109234;28;20043;-61
2021/09/07 12:58:11;;;;;;;6.47;5.87;;;;;;;;;;5111386;28;20054;-61
2021/09/07 13:00:37;;;;;;;6.83;6.23;;;;;;;;;;5112327;28;20015;-60
2021/09/07 13:03:03;;;;;;;6.10;5.60;;;;;;;;;;5112667;28;20055;-60
2021/09/07 13:05:28;;;;;;;7.00;6.40;;;;;;;;;;5111697;28;20024;-59
2021/09/07 13:07:53;;;;;;;6.90;6.30;;;;;;;;;;5112148;28;20011;-60
2021/09/07 13:10:18;;;;;;;7.53;6.83;;;;;;;;;;5111817;28;20015;-60
2021/09/07 13:12:43;;;;;;;6.50;5.90;;;;;;;;;;5110818;28;20379;-59
2021/09/07 13:15:09;;;;;;;6.40;5.90;;;;;;;;;;5112268;28;20012;-60
2021/09/07 13:17:34;;;;;;;6.05;5.55;;;;;;;;;;5111575;28;20026;-60
2021/09/07 13:19:59;;;;;;;5.93;5.43;;;;;;;;;;5109909;28;20425;-60
2021/09/07 13:22:24;;;;;;;6.77;6.17;;;;;;;;;;5107429;28;20031;-58
2021/09/07 13:24:49;;;;;;;6.20;5.60;;;;;;;;;;5105695;28;20030;-60
2021/09/07 13:27:15;;;;;;;6.53;5.93;;;;;;;;;;5112029;28;20081;-60
2021/09/07 13:29:40;;;;;;;5.73;5.33;;;;;;;;;;5111394;28;20071;-60
2021/09/07 13:32:05;;;;;;;5.30;4.80;;;;;;;;;;5111151;28;20020;-60
2021/09/07 13:34:31;;;;;;;5.90;4.90;;;;;;;;;;5111986;28;20015;-59
2021/09/07 13:36:56;;;;;;;6.47;5.20;;;;;;;;;;5110693;28;20028;-60
2021/09/07 13:39:21;;;;;;;6.20;4.40;;;;;;;;;;5111127;28;20115;-59
2021/09/07 13:41:46;;;;;;;4.73;4.33;;;;;;;;;;5110688;28;20059;-59
2021/09/07 13:44:12;;;;;;;5.10;4.40;;;;;;;;;;5111388;28;20028;-59
2021/09/07 13:46:37;;;;;;;4.20;3.90;;;;;;;;;;5111569;28;20274;-60
2021/09/07 13:49:02;;;;;;;5.40;4.20;;;;;;;;;;5111123;28;20028;-60
2021/09/07 13:51:27;;;;;;;4.37;3.97;;;;;;;;;;5111079;28;20385;-60
2021/09/07 13:53:52;;;;;;;4.03;3.73;;;;;;;;;;5111376;28;20019;-59
2021/09/07 13:56:18;;;;;;;5.87;5.47;;;;;;;;;;5111820;28;20285;-60
2021/09/07 13:58:43;;;;;;;5.00;4.57;;;;;;;;;;5111614;28;20107;-59
2021/09/07 14:01:08;;;;;;;4.43;4.07;;;;;;;;;;5111671;28;20272;-60
2021/09/07 14:03:33;;;;;;;4.40;4.00;;;;;;;;;;5111211;28;20288;-60
2021/09/07 14:05:58;;;;;;;4.63;4.23;;;;;;;;;;5111353;28;20509;-61
2021/09/07 14:08:24;;;;;;;4.97;4.27;;;;;;;;;;5104446;28;20114;-60
2021/09/07 14:10:49;;;;;;;4.65;4.30;;;;;;;;;;5093177;28;20111;-59
2021/09/07 14:13:14;;;;;;;6.70;4.43;;;;;;;;;;5111109;28;20024;-59
2021/09/07 14:15:39;;;;;;;5.13;4.23;;;;;;;;;;5093305;28;20015;-60
2021/09/07 14:18:05;;;;;;;4.10;3.70;;;;;;;;;;5111526;28;20381;-60
2021/09/07 14:20:30;;;;;;;4.00;3.70;;;;;;;;;;5110558;28;20035;-59
2021/09/07 14:22:55;;;;;;;4.78;4.13;;;;;;;;;;5110972;28;20273;-60
2021/09/07 14:25:20;;;;;;;6.00;4.80;;;;;;;;;;5111609;28;20023;-60
2021/09/07 14:27:46;;;;;;;5.17;4.20;;;;;;;;;;5111167;28;20276;-62
2021/09/07 14:30:11;;;;;;;4.20;3.83;;;;;;;;;;5111175;28;20798;-60